Terminal Aerodrome Forecast
Issued by NWS Paducah, KY

Home | Current Version | Previous Version | Text Only | Print | Product List | Glossary On
Versions: 1 2 3 4 5 6 7 8 9 10 11 12
937
FTUS43 KPAH 041724
TAFPAH
TAF
KPAH 041724Z 0418/0518 32008KT P6SM SKC
     FM050000 20002KT P6SM SKC
     FM051500 28006KT P6SM SKC=

USA.gov is the U.S. government's official web portal to all federal, state and local government web resources and services.